Time;durP1;ratioP1;P1;durP2;ratioP2;P2;SDS_P1;SDS_P2;PMS_P1;PMS_P2;Temp;Humidity;BMP_temperature;BMP_pressure;BME280_temperature;BME280_humidity;BME280_pressure;Samples;Min_cycle;Max_cycle;Signal;HPM_P1;HPM_P2
2021/04/14 00:00:57;;;;;;;8.95;6.30;;;5.70;95.00;;;;;;6185014;23;20081;-89
2021/04/14 00:03:28;;;;;;;9.15;6.90;;;5.70;95.20;;;;;;6173351;23;20151;-89
2021/04/14 00:05:55;;;;;;;8.63;6.43;;;5.70;95.30;;;;;;6185229;23;20021;-89
2021/04/14 00:08:22;;;;;;;9.07;6.93;;;5.70;95.30;;;;;;6184734;23;20449;-89
2021/04/14 00:10:49;;;;;;;8.20;6.75;;;5.70;95.40;;;;;;6185839;23;20480;-89
2021/04/14 00:13:22;;;;;;;9.85;6.75;;;5.60;95.50;;;;;;6192841;23;20021;-88
2021/04/14 00:15:52;;;;;;;8.27;6.90;;;5.60;95.60;;;;;;6187412;23;20043;-89
2021/04/14 00:18:20;;;;;;;9.10;7.47;;;5.60;95.80;;;;;;6184530;23;20306;-89
2021/04/14 00:20:47;;;;;;;10.32;6.63;;;5.60;96.00;;;;;;6184837;23;20021;-88
2021/04/14 00:23:17;;;;;;;10.02;7.22;;;5.50;96.10;;;;;;6183911;23;20017;-89
2021/04/14 00:25:45;;;;;;;9.48;7.22;;;5.50;96.10;;;;;;6184780;23;20072;-89
2021/04/14 00:28:14;;;;;;;7.60;6.68;;;5.50;96.20;;;;;;6170123;23;20021;-88
2021/04/14 00:30:41;;;;;;;8.85;6.63;;;5.50;96.30;;;;;;6163067;23;20020;-89
2021/04/14 00:33:08;;;;;;;9.63;6.70;;;5.50;96.30;;;;;;6183982;23;20021;-89
2021/04/14 00:35:34;;;;;;;9.02;6.72;;;5.40;96.30;;;;;;6185473;23;20021;-89
2021/04/14 00:38:01;;;;;;;9.93;6.32;;;5.50;96.40;;;;;;6184954;23;20338;-89
2021/04/14 00:40:37;;;;;;;8.20;7.28;;;5.40;96.40;;;;;;6170083;23;20590;-89
2021/04/14 00:43:31;;;;;;;10.43;6.38;;;5.40;96.30;;;;;;6166130;23;20504;-89
2021/04/14 00:45:59;;;;;;;8.68;6.47;;;5.40;96.40;;;;;;6185125;23;20023;-89
2021/04/14 00:48:26;;;;;;;7.55;6.75;;;5.40;96.50;;;;;;6183886;23;20028;-89
2021/04/14 00:50:54;;;;;;;8.52;6.45;;;5.40;96.40;;;;;;6185043;23;20378;-89
2021/04/14 00:53:20;;;;;;;8.73;6.60;;;5.40;96.40;;;;;;6185463;23;20017;-88
2021/04/14 00:55:47;;;;;;;10.65;6.78;;;5.40;96.30;;;;;;6173324;23;20025;-89
2021/04/14 00:58:14;;;;;;;7.97;6.43;;;5.40;96.30;;;;;;6183607;23;20024;-89
2021/04/14 01:00:46;;;;;;;8.80;6.00;;;5.40;96.30;;;;;;6184802;23;20050;-90
2021/04/14 01:03:36;;;;;;;;;;;;;;;;;;;;;
2021/04/14 01:06:21;;;;;;;6.95;6.15;;;5.30;96.20;;;;;;6186563;23;20052;-89
2021/04/14 01:08:47;;;;;;;6.55;5.95;;;5.30;96.20;;;;;;6184763;23;20052;-89
2021/04/14 01:11:15;;;;;;;8.25;5.97;;;5.30;96.20;;;;;;6184691;23;20077;-89
2021/04/14 01:13:44;;;;;;;7.63;6.63;;;5.30;96.30;;;;;;6185153;23;20028;-89
2021/04/14 01:16:11;;;;;;;9.18;6.55;;;5.30;96.20;;;;;;6184107;23;20021;-90
2021/04/14 01:18:40;;;;;;;10.30;7.20;;;5.30;96.20;;;;;;6184848;23;20020;-90
2021/04/14 01:21:13;;;;;;;8.55;6.15;;;5.30;96.10;;;;;;6171432;23;20332;-89
2021/04/14 01:23:40;;;;;;;8.73;6.85;;;5.30;96.20;;;;;;6162334;23;20028;-89
2021/04/14 01:26:06;;;;;;;10.60;7.03;;;5.30;96.10;;;;;;6184802;23;20021;-89
2021/04/14 01:28:37;;;;;;;7.15;6.32;;;5.30;96.20;;;;;;6185354;23;20044;-89
2021/04/14 01:31:07;;;;;;;8.30;6.63;;;5.20;96.10;;;;;;6189296;23;20021;-89
2021/04/14 01:33:34;;;;;;;7.97;6.32;;;5.20;96.20;;;;;;6196172;23;20025;-89
2021/04/14 01:36:03;;;;;;;8.95;6.63;;;5.20;96.20;;;;;;6184751;23;20316;-89
2021/04/14 01:38:30;;;;;;;9.35;6.63;;;5.20;96.20;;;;;;6183207;23;20014;-89
2021/04/14 01:40:58;;;;;;;12.02;7.70;;;5.20;96.20;;;;;;6185467;23;20024;-90
2021/04/14 01:43:25;;;;;;;8.50;7.13;;;5.20;96.30;;;;;;6188598;23;20020;-88
2021/04/14 01:45:52;;;;;;;8.20;7.35;;;5.20;96.20;;;;;;6189576;23;20295;-89
2021/04/14 01:48:19;;;;;;;9.65;6.70;;;5.20;96.20;;;;;;6188648;23;20451;-89
2021/04/14 01:50:46;;;;;;;9.00;7.32;;;5.10;96.20;;;;;;6189719;23;20016;-89
2021/04/14 01:53:15;;;;;;;8.45;7.13;;;5.10;96.20;;;;;;6188871;23;20463;-89
2021/04/14 01:55:42;;;;;;;9.07;7.00;;;5.10;96.20;;;;;;6188592;23;20068;-89
2021/04/14 01:58:14;;;;;;;10.52;6.95;;;5.10;96.20;;;;;;6175382;23;20067;-89
2021/04/14 02:00:50;;;;;;;8.40;7.25;;;5.10;96.20;;;;;;6189050;23;20024;-89
2021/04/14 02:03:19;;;;;;;8.25;7.38;;;5.00;96.30;;;;;;6188266;23;20017;-90
2021/04/14 02:05:46;;;;;;;9.05;7.00;;;5.00;96.30;;;;;;6188989;23;20051;-90
2021/04/14 02:08:13;;;;;;;9.93;8.10;;;5.00;96.30;;;;;;6188757;23;20023;-89
2021/04/14 02:10:40;;;;;;;11.05;7.68;;;5.00;96.30;;;;;;6189496;23;20456;-89
2021/04/14 02:13:17;;;;;;;11.38;7.53;;;5.00;96.30;;;;;;6189464;23;20078;-90
2021/04/14 02:15:44;;;;;;;9.27;7.25;;;4.90;96.30;;;;;;6189966;23;20025;-89
2021/04/14 02:18:11;;;;;;;11.00;7.57;;;4.90;96.50;;;;;;6189478;23;20018;-90
2021/04/14 02:20:37;;;;;;;10.85;7.88;;;4.90;96.50;;;;;;6188945;23;20503;-90
2021/04/14 02:23:17;;;;;;;8.70;7.75;;;4.80;96.50;;;;;;6188271;23;20328;-90
2021/04/14 02:25:44;;;;;;;12.50;8.20;;;4.80;96.50;;;;;;6189213;23;20017;-89
2021/04/14 02:28:11;;;;;;;9.82;7.90;;;4.80;96.60;;;;;;6187908;23;20059;-90
2021/04/14 02:30:38;;;;;;;9.32;7.53;;;4.80;96.50;;;;;;6189511;23;20376;-90
2021/04/14 02:33:06;;;;;;;9.70;7.40;;;4.80;96.50;;;;;;6188374;23;20020;-89
2021/04/14 02:35:33;;;;;;;9.83;7.57;;;4.80;96.50;;;;;;6189163;23;20365;-90
2021/04/14 02:38:00;;;;;;;8.38;7.35;;;4.80;96.60;;;;;;6189436;23;20024;-90
2021/04/14 02:40:27;;;;;;;12.38;7.93;;;4.80;96.60;;;;;;6188770;23;20034;-89
2021/04/14 02:42:54;;;;;;;8.60;7.68;;;4.70;96.50;;;;;;6188892;23;20048;-90
2021/04/14 02:45:26;;;;;;;9.43;7.70;;;4.70;96.60;;;;;;6188687;23;20025;-89
2021/04/14 02:47:52;;;;;;;9.77;7.95;;;4.70;96.50;;;;;;6189849;23;20022;-90
2021/04/14 02:50:19;;;;;;;10.43;7.95;;;4.70;96.50;;;;;;6179551;23;20051;-89
2021/04/14 02:52:49;;;;;;;9.43;7.05;;;4.70;96.60;;;;;;6201815;23;20024;-90
2021/04/14 02:55:17;;;;;;;10.05;8.13;;;4.70;96.60;;;;;;6188283;23;20515;-90
2021/04/14 02:57:45;;;;;;;8.48;7.28;;;4.60;96.50;;;;;;6188726;23;20046;-89
2021/04/14 03:00:13;;;;;;;8.00;7.20;;;4.60;96.60;;;;;;6188734;23;20074;-90
2021/04/14 03:02:40;;;;;;;10.02;7.05;;;4.60;96.50;;;;;;6190096;23;20016;-90
2021/04/14 03:05:09;;;;;;;10.38;7.78;;;4.60;96.50;;;;;;6189213;23;20024;-89
2021/04/14 03:07:36;;;;;;;9.57;7.80;;;4.60;96.50;;;;;;6188940;23;20028;-89
2021/04/14 03:10:05;;;;;;;13.35;7.35;;;4.60;96.50;;;;;;6163078;23;20049;-89
2021/04/14 03:12:32;;;;;;;8.55;7.65;;;4.50;96.50;;;;;;6176460;23;20035;-89
2021/04/14 03:14:58;;;;;;;9.60;7.72;;;4.50;96.40;;;;;;6188310;23;20329;-89
2021/04/14 03:17:26;;;;;;;9.80;7.45;;;4.50;96.50;;;;;;6187507;23;20392;-89
2021/04/14 03:19:52;;;;;;;9.00;7.38;;;4.50;96.50;;;;;;6188719;23;20021;-89
2021/04/14 03:22:19;;;;;;;9.32;7.97;;;4.50;96.40;;;;;;6187699;23;20483;-89
2021/04/14 03:24:46;;;;;;;8.90;7.28;;;4.50;96.50;;;;;;6215028;23;20027;-89
2021/04/14 03:27:12;;;;;;;9.23;7.60;;;4.50;96.50;;;;;;6187433;23;20103;-89
2021/04/14 03:29:39;;;;;;;8.85;7.38;;;4.50;96.50;;;;;;6188495;23;20032;-89
2021/04/14 03:32:08;;;;;;;10.38;7.82;;;4.50;96.50;;;;;;6188417;23;20020;-89
2021/04/14 03:34:35;;;;;;;9.32;7.53;;;4.40;96.40;;;;;;6188831;23;20028;-89
2021/04/14 03:37:01;;;;;;;9.68;8.00;;;4.40;96.50;;;;;;6188275;23;20031;-89
2021/04/14 03:39:28;;;;;;;10.02;7.88;;;4.40;96.50;;;;;;6187915;23;20023;-88
2021/04/14 03:41:54;;;;;;;13.25;7.25;;;4.40;96.50;;;;;;6183156;23;20029;-89
2021/04/14 03:44:21;;;;;;;9.73;7.57;;;4.40;96.50;;;;;;6182327;23;20021;-88
2021/04/14 03:46:48;;;;;;;9.25;7.47;;;4.40;96.50;;;;;;6183765;23;20020;-89
2021/04/14 03:49:14;;;;;;;13.60;7.65;;;4.30;96.40;;;;;;6182546;23;20341;-89
2021/04/14 03:51:41;;;;;;;10.13;7.80;;;4.30;96.70;;;;;;6183380;23;20021;-89
2021/04/14 03:54:07;;;;;;;9.63;7.82;;;4.30;96.40;;;;;;6183163;23;20292;-90
2021/04/14 03:56:52;;;;;;;9.65;8.30;;;4.30;96.50;;;;;;6183753;23;20495;-89
2021/04/14 03:59:19;;;;;;;9.40;7.55;;;4.20;96.50;;;;;;6183835;23;20025;-89
2021/04/14 04:01:46;;;;;;;8.73;7.78;;;4.20;96.50;;;;;;6184647;23;20099;-90
2021/04/14 04:04:12;;;;;;;10.68;7.80;;;4.20;96.60;;;;;;6182975;23;20329;-88
2021/04/14 04:06:39;;;;;;;8.20;7.32;;;4.10;96.60;;;;;;6184145;23;20017;-90
2021/04/14 04:09:06;;;;;;;9.85;8.00;;;4.10;96.90;;;;;;6184512;23;20080;-89
2021/04/14 04:11:33;;;;;;;9.38;8.00;;;4.10;96.60;;;;;;6194942;23;20477;-88
2021/04/14 04:14:00;;;;;;;8.88;7.40;;;4.10;96.70;;;;;;6185077;23;20040;-89
2021/04/14 04:16:26;;;;;;;8.65;7.70;;;4.10;96.70;;;;;;6182410;23;20084;-89
2021/04/14 04:18:54;;;;;;;9.73;7.60;;;4.10;96.80;;;;;;6185903;23;20077;-89
2021/04/14 04:21:21;;;;;;;10.27;7.53;;;4.10;96.70;;;;;;6183832;23;20025;-89
2021/04/14 04:23:47;;;;;;;10.32;8.20;;;4.10;96.70;;;;;;6184754;23;20092;-89
2021/04/14 04:26:14;;;;;;;8.27;7.20;;;4.00;96.70;;;;;;6184425;23;20091;-90
2021/04/14 04:28:41;;;;;;;9.98;7.82;;;4.00;96.70;;;;;;6166756;23;20064;-89
2021/04/14 04:31:09;;;;;;;8.90;7.22;;;4.00;96.70;;;;;;6154998;23;20025;-90
2021/04/14 04:33:38;;;;;;;8.65;7.38;;;4.00;96.70;;;;;;6173216;23;20327;-89
2021/04/14 04:36:06;;;;;;;9.93;7.80;;;3.90;96.70;;;;;;6171510;23;20178;-89
2021/04/14 04:38:34;;;;;;;13.43;7.97;;;3.90;96.80;;;;;;6184898;23;20021;-90
2021/04/14 04:41:04;;;;;;;8.32;7.43;;;3.90;96.80;;;;;;6187361;23;20105;-90
2021/04/14 04:43:31;;;;;;;8.15;6.95;;;3.90;96.80;;;;;;6189207;23;20366;-90
2021/04/14 04:45:57;;;;;;;10.10;8.10;;;3.90;96.80;;;;;;6177999;23;20042;-90
2021/04/14 04:48:25;;;;;;;8.25;6.55;;;3.90;96.80;;;;;;6189409;23;20104;-89
2021/04/14 04:50:52;;;;;;;10.55;8.10;;;3.90;96.80;;;;;;6191963;23;20021;-89
2021/04/14 04:53:22;;;;;;;9.50;7.10;;;3.90;96.80;;;;;;6190982;23;20040;-89
2021/04/14 04:55:49;;;;;;;10.13;7.60;;;3.90;96.80;;;;;;6190570;23;20318;-89
2021/04/14 04:58:17;;;;;;;8.70;6.93;;;3.90;96.70;;;;;;6188936;23;20017;-90
2021/04/14 05:00:44;;;;;;;8.80;7.18;;;3.90;96.50;;;;;;6190512;23;20020;-89
2021/04/14 05:03:13;;;;;;;10.75;7.65;;;3.90;96.50;;;;;;6215552;23;20458;-90
2021/04/14 05:05:42;;;;;;;8.75;7.10;;;4.00;96.40;;;;;;6215616;23;20440;-90
2021/04/14 05:08:10;;;;;;;9.02;7.50;;;4.00;96.40;;;;;;6189164;23;20080;-89
2021/04/14 05:10:37;;;;;;;9.48;6.57;;;4.00;96.30;;;;;;6190187;23;20019;-89
2021/04/14 05:13:06;;;;;;;10.20;7.50;;;4.00;96.30;;;;;;6177757;23;20036;-90
2021/04/14 05:15:39;;;;;;;8.65;7.18;;;4.00;96.30;;;;;;6190136;23;20021;-90
2021/04/14 05:18:15;;;;;;;8.40;6.88;;;3.90;96.20;;;;;;6204231;23;20483;-92
2021/04/14 05:20:49;;;;;;;9.77;7.10;;;3.90;96.30;;;;;;6179532;23;20066;-93
2021/04/14 05:23:30;;;;;;;;;;;4.00;96.40;;;;;;6132311;23;20024;-93
2021/04/14 05:26:05;;;;;;;9.20;6.90;;;4.00;96.30;;;;;;6140527;23;19924;-93
2021/04/14 05:28:56;;;;;;;9.27;7.00;;;4.00;96.20;;;;;;6129666;23;20025;-92
2021/04/14 05:31:38;;;;;;;10.75;7.55;;;4.00;96.00;;;;;;6160843;23;20044;-93
2021/04/14 05:34:08;;;;;;;;;;;4.00;96.00;;;;;;6136992;23;20066;-93
2021/04/14 05:36:42;;;;;;;9.18;6.53;;;4.00;96.00;;;;;;6139573;23;19916;-93
2021/04/14 05:39:39;;;;;;;8.55;6.57;;;4.00;96.00;;;;;;5962672;23;20471;-93
2021/04/14 05:42:34;;;;;;;9.43;6.70;;;4.00;95.90;;;;;;5953190;23;20023;-92
2021/04/14 05:45:05;;;;;;;8.00;6.28;;;4.00;95.80;;;;;;5970241;23;20026;-93
2021/04/14 05:47:38;;;;;;;9.40;6.45;;;4.10;95.80;;;;;;5957977;24;20039;-93
2021/04/14 05:50:11;;;;;;;10.63;7.70;;;4.10;95.70;;;;;;5935145;23;20578;-93
2021/04/14 05:52:40;;;;;;;9.30;7.07;;;4.10;95.70;;;;;;5946906;24;20024;-92
2021/04/14 05:55:09;;;;;;;9.55;6.95;;;4.10;95.60;;;;;;5968006;23;20060;-93
2021/04/14 05:57:38;;;;;;;10.55;7.05;;;4.10;95.60;;;;;;6041548;23;20027;-93
2021/04/14 06:00:10;;;;;;;11.48;7.50;;;4.10;95.60;;;;;;6094221;23;20021;-93
2021/04/14 06:02:46;;;;;;;9.38;7.45;;;4.20;95.60;;;;;;6168171;23;20055;-93
2021/04/14 06:05:28;;;;;;;9.95;7.13;;;4.20;95.60;;;;;;6168207;23;20384;-93
2021/04/14 06:07:58;;;;;;;8.85;6.75;;;4.20;95.60;;;;;;6156955;23;20017;-93
2021/04/14 06:10:28;;;;;;;9.35;7.15;;;4.30;95.60;;;;;;6129346;23;20017;-93
2021/04/14 06:12:55;;;;;;;16.88;7.90;;;4.30;95.60;;;;;;6177059;23;20025;-92
2021/04/14 06:15:30;;;;;;;8.95;7.20;;;4.30;95.40;;;;;;6140302;23;20024;-92
2021/04/14 06:18:09;;;;;;;8.82;6.55;;;4.40;95.40;;;;;;6128862;23;20047;-92
2021/04/14 06:20:56;;;;;;;8.65;7.07;;;4.40;95.40;;;;;;6152806;23;20029;-91
2021/04/14 06:23:30;;;;;;;10.05;7.28;;;4.50;95.30;;;;;;6140876;23;20036;-93
2021/04/14 06:28:58;;;;;;;8.77;6.47;;;4.60;94.90;;;;;;6159350;23;20021;-90
2021/04/14 06:31:25;;;;;;;8.35;6.43;;;4.70;94.90;;;;;;6156940;23;20380;-90
2021/04/14 06:33:54;;;;;;;8.40;6.87;;;4.80;94.70;;;;;;6173474;23;20021;-89
2021/04/14 06:36:21;;;;;;;10.75;7.00;;;4.90;94.80;;;;;;6184015;23;20032;-88
2021/04/14 06:38:50;;;;;;;10.85;6.68;;;4.90;94.80;;;;;;6182646;23;20083;-88
2021/04/14 06:41:49;;;;;;;9.70;7.00;;;5.00;94.60;;;;;;6180994;23;20409;-89
2021/04/14 06:44:57;;;;;;;9.88;6.85;;;5.10;94.60;;;;;;6181284;23;20104;-88
2021/04/14 06:47:51;;;;;;;11.23;7.30;;;5.20;94.30;;;;;;6187111;23;20434;-89
2021/04/14 06:50:24;;;;;;;9.88;6.10;;;5.30;94.10;;;;;;6180034;23;20100;-88
2021/04/14 06:53:26;;;;;;;8.65;6.45;;;5.40;93.90;;;;;;6181857;23;20017;-89
2021/04/14 06:56:01;;;;;;;8.88;6.70;;;5.50;93.80;;;;;;6183357;23;20321;-88
2021/04/14 06:58:41;;;;;;;9.35;6.55;;;5.70;93.60;;;;;;6182681;23;20089;-88
2021/04/14 07:01:13;;;;;;;7.22;6.03;;;5.80;93.60;;;;;;6182805;23;20449;-88
2021/04/14 07:03:55;;;;;;;8.40;6.32;;;5.90;93.50;;;;;;6182997;23;20356;-88
2021/04/14 07:06:26;;;;;;;8.07;6.28;;;6.00;93.30;;;;;;6182052;23;20361;-88
2021/04/14 07:09:04;;;;;;;11.50;6.20;;;6.10;93.20;;;;;;6182530;23;20032;-87
2021/04/14 07:11:31;;;;;;;8.82;6.13;;;6.30;92.90;;;;;;6181683;23;20100;-89
2021/04/14 07:13:58;;;;;;;9.43;6.55;;;6.40;92.40;;;;;;6182863;23;20424;-88
2021/04/14 07:16:58;;;;;;;8.40;5.82;;;6.50;92.50;;;;;;6181727;23;20794;-88
2021/04/14 07:19:34;;;;;;;9.63;6.03;;;6.60;92.20;;;;;;6181799;23;20021;-88
2021/04/14 07:22:20;;;;;;;9.00;5.65;;;6.80;91.80;;;;;;6185171;23;20021;-87
2021/04/14 07:25:05;;;;;;;7.35;5.57;;;6.90;91.70;;;;;;6182625;23;20019;-88
2021/04/14 07:27:45;;;;;;;7.68;5.68;;;7.10;91.40;;;;;;6182848;23;20075;-88
2021/04/14 07:30:20;;;;;;;9.23;5.53;;;7.30;91.30;;;;;;6183414;23;20445;-88
2021/04/14 07:32:58;;;;;;;10.48;5.85;;;7.40;91.10;;;;;;6180971;23;20032;-88
2021/04/14 07:35:27;;;;;;;7.45;5.50;;;7.60;91.00;;;;;;6177424;23;20041;-87
2021/04/14 07:38:21;;;;;;;6.72;5.07;;;7.80;90.80;;;;;;6179794;23;20382;-88
2021/04/14 07:41:22;;;;;;;8.65;6.03;;;8.00;90.80;;;;;;6181119;23;20067;-87
2021/04/14 07:43:53;;;;;;;8.73;5.22;;;8.20;90.50;;;;;;6147144;23;20014;-87
2021/04/14 07:46:24;;;;;;;7.40;5.05;;;8.40;90.20;;;;;;6148026;23;20389;-87
2021/04/14 07:48:53;;;;;;;7.78;5.97;;;8.50;89.60;;;;;;6148366;23;20472;-87
2021/04/14 07:51:22;;;;;;;8.73;5.85;;;8.60;88.90;;;;;;6147644;23;20430;-87
2021/04/14 07:54:07;;;;;;;7.78;4.97;;;8.80;89.00;;;;;;6149309;23;20023;-87
2021/04/14 07:57:07;;;;;;;10.07;5.72;;;8.90;88.50;;;;;;6150003;23;20446;-88
2021/04/14 07:59:39;;;;;;;7.03;5.18;;;9.10;88.60;;;;;;6035767;23;20023;-87
2021/04/14 08:02:13;;;;;;;8.43;5.68;;;9.20;88.90;;;;;;6035129;23;20034;-87
2021/04/14 08:04:44;;;;;;;10.77;5.15;;;9.40;88.50;;;;;;6034946;23;20038;-87
2021/04/14 08:07:23;;;;;;;7.38;5.22;;;9.50;86.50;;;;;;6033766;23;20150;-87
2021/04/14 08:10:04;;;;;;;5.97;4.90;;;9.60;85.70;;;;;;6033939;23;20100;-87
2021/04/14 08:12:32;;;;;;;8.80;5.03;;;9.70;85.70;;;;;;6033454;23;20473;-87
2021/04/14 08:15:25;;;;;;;6.03;4.83;;;9.80;84.80;;;;;;6034811;23;20027;-87
2021/04/14 08:17:53;;;;;;;7.28;4.60;;;9.90;83.30;;;;;;6029852;23;20023;-87
2021/04/14 08:20:30;;;;;;;6.65;5.03;;;10.00;83.80;;;;;;6033486;23;20455;-86
2021/04/14 08:23:21;;;;;;;6.30;4.72;;;10.10;84.00;;;;;;6037061;23;20463;-87
2021/04/14 08:25:54;;;;;;;4.90;4.03;;;10.20;82.70;;;;;;6013442;23;20027;-88
2021/04/14 08:28:41;;;;;;;5.88;4.22;;;10.30;81.30;;;;;;6036678;23;20452;-88
2021/04/14 08:31:13;;;;;;;7.63;4.13;;;10.30;80.80;;;;;;6036656;23;20028;-88
2021/04/14 08:33:41;;;;;;;5.13;4.00;;;10.40;80.10;;;;;;6037475;23;20049;-87
2021/04/14 08:36:16;;;;;;;6.20;4.10;;;10.50;81.20;;;;;;6164434;23;20017;-86
2021/04/14 08:38:43;;;;;;;6.00;4.03;;;10.50;80.40;;;;;;6156350;23;20028;-87
2021/04/14 08:41:25;;;;;;;5.97;3.90;;;10.60;79.50;;;;;;6161480;23;20072;-87
2021/04/14 08:43:53;;;;;;;6.25;4.55;;;10.70;79.10;;;;;;6189404;23;20013;-87
2021/04/14 08:46:37;;;;;;;6.85;4.55;;;10.70;79.80;;;;;;6215361;23;20033;-87
2021/04/14 08:49:13;;;;;;;7.40;4.32;;;10.90;79.10;;;;;;6188400;23;20025;-86
2021/04/14 08:51:43;;;;;;;7.28;4.88;;;11.00;78.60;;;;;;6189464;23;20348;-86
2021/04/14 08:54:22;;;;;;;9.55;4.53;;;11.10;78.30;;;;;;6188958;23;20040;-86
2021/04/14 08:56:50;;;;;;;5.60;4.38;;;11.20;77.80;;;;;;6215917;23;20021;-87
2021/04/14 08:59:17;;;;;;;5.40;4.40;;;11.30;78.10;;;;;;6189066;23;20074;-87
2021/04/14 09:01:43;;;;;;;5.70;4.38;;;11.30;77.50;;;;;;6188950;23;20108;-87
2021/04/14 09:04:12;;;;;;;6.38;4.45;;;11.40;76.60;;;;;;6214879;23;20017;-87
2021/04/14 09:06:43;;;;;;;;;;;11.50;74.90;;;;;;6189829;23;20055;-87
2021/04/14 09:09:18;;;;;;;5.18;4.00;;;11.50;74.00;;;;;;6214981;23;19916;-87
2021/04/14 09:11:55;;;;;;;6.63;4.40;;;11.50;75.00;;;;;;6216076;23;20017;-87
2021/04/14 09:14:26;;;;;;;5.53;4.20;;;11.60;74.20;;;;;;6192296;23;20021;-87
2021/04/14 09:17:01;;;;;;;5.63;4.20;;;11.60;73.70;;;;;;6232344;23;20044;-87
2021/04/14 09:19:52;;;;;;;;;;;11.70;73.40;;;;;;6190078;23;20092;-87
2021/04/14 09:22:24;;;;;;;5.53;4.07;;;11.70;73.00;;;;;;6187916;23;20338;-87
2021/04/14 09:25:09;;;;;;;5.90;4.00;;;11.80;73.20;;;;;;6215273;23;20021;-87
2021/04/14 09:27:36;;;;;;;5.35;3.80;;;11.80;73.50;;;;;;6188021;23;20263;-87
2021/04/14 09:30:15;;;;;;;11.07;4.38;;;11.90;73.70;;;;;;6188996;23;20013;-88
2021/04/14 09:32:48;;;;;;;7.65;4.22;;;12.10;71.80;;;;;;6187947;23;20087;-87
2021/04/14 09:35:29;;;;;;;4.50;3.47;;;12.20;72.20;;;;;;6188165;23;20099;-87
2021/04/14 09:38:14;;;;;;;6.93;3.92;;;12.30;70.40;;;;;;6189292;23;20020;-87
2021/04/14 09:40:41;;;;;;;6.28;3.63;;;12.30;70.50;;;;;;6189152;23;20027;-87
2021/04/14 09:43:32;;;;;;;5.68;4.55;;;12.30;71.90;;;;;;6213137;23;20040;-87
2021/04/14 09:46:04;;;;;;;4.80;4.20;;;12.30;70.50;;;;;;6186228;23;20044;-87
2021/04/14 09:48:46;;;;;;;6.53;4.20;;;12.40;70.80;;;;;;6188412;23;20044;-87
2021/04/14 09:51:30;;;;;;;4.78;3.63;;;12.40;70.70;;;;;;6187759;23;20474;-87
2021/04/14 09:54:08;;;;;;;6.88;5.38;;;12.40;69.80;;;;;;6188781;23;20013;-87
2021/04/14 09:56:35;;;;;;;5.30;4.20;;;12.50;70.50;;;;;;6174766;23;20025;-87
2021/04/14 09:59:13;;;;;;;5.78;4.50;;;12.60;70.60;;;;;;6189232;23;20025;-87
2021/04/14 10:01:41;;;;;;;4.95;4.30;;;12.60;69.60;;;;;;6199922;23;20341;-88
2021/04/14 10:04:21;;;;;;;6.55;5.00;;;12.70;70.10;;;;;;6185821;23;20016;-87
2021/04/14 10:06:55;;;;;;;5.70;4.30;;;12.70;70.50;;;;;;6185519;23;20020;-87
2021/04/14 10:09:25;;;;;;;6.63;4.63;;;12.80;69.30;;;;;;6183066;23;20415;-87
2021/04/14 10:11:52;;;;;;;6.47;4.57;;;12.80;68.90;;;;;;6185138;23;20032;-88
2021/04/14 10:14:23;;;;;;;8.05;4.63;;;12.80;69.50;;;;;;6185006;23;20053;-87
2021/04/14 10:16:52;;;;;;;13.55;5.32;;;12.90;69.60;;;;;;6212512;23;20044;-87
2021/04/14 10:19:30;;;;;;;5.70;4.72;;;13.00;69.30;;;;;;6183480;23;20048;-87
2021/04/14 10:22:04;;;;;;;5.75;4.80;;;13.20;67.20;;;;;;6184849;23;20040;-87
2021/04/14 10:24:30;;;;;;;7.03;4.53;;;13.30;68.50;;;;;;6172627;23;20020;-88
2021/04/14 10:26:59;;;;;;;5.38;4.20;;;13.30;67.40;;;;;;6186468;23;20016;-87
2021/04/14 10:29:29;;;;;;;11.00;5.55;;;13.30;66.90;;;;;;6217040;23;20016;-88
2021/04/14 10:31:57;;;;;;;5.47;4.60;;;13.30;65.80;;;;;;6203600;23;20028;-88
2021/04/14 10:34:32;;;;;;;;;;;13.30;66.60;;;;;;6188498;23;20028;-87
2021/04/14 10:37:10;;;;;;;5.68;4.95;;;13.30;66.90;;;;;;6188368;23;20343;-87
2021/04/14 10:39:36;;;;;;;5.20;4.70;;;13.30;66.90;;;;;;6187977;23;20134;-87
2021/04/14 10:42:17;;;;;;;5.05;4.55;;;13.40;66.40;;;;;;6188663;23;20024;-87
2021/04/14 10:44:45;;;;;;;5.40;4.30;;;13.40;64.70;;;;;;6214284;23;20436;-87
2021/04/14 10:47:17;;;;;;;5.00;4.50;;;13.40;65.40;;;;;;6214497;23;20020;-87
2021/04/14 10:49:44;;;;;;;5.93;4.85;;;13.40;66.20;;;;;;6188570;23;20095;-88
2021/04/14 10:52:23;;;;;;;8.27;4.88;;;13.40;65.90;;;;;;6214058;23;20016;-87
2021/04/14 10:54:53;;;;;;;7.22;5.00;;;13.40;64.20;;;;;;6188953;23;20019;-87
2021/04/14 10:57:37;;;;;;;5.70;4.70;;;13.40;65.70;;;;;;6188555;23;20036;-88
2021/04/14 11:00:07;;;;;;;10.05;5.10;;;13.50;66.10;;;;;;6173803;23;20025;-87
2021/04/14 11:02:41;;;;;;;7.25;4.93;;;13.50;65.30;;;;;;6214145;23;20025;-88
2021/04/14 11:05:16;;;;;;;12.35;5.07;;;13.50;64.30;;;;;;6185262;23;20436;-88
2021/04/14 11:07:44;;;;;;;7.20;4.70;;;13.50;65.10;;;;;;6185874;23;20022;-87
2021/04/14 11:10:24;;;;;;;5.68;5.07;;;13.60;64.80;;;;;;6185965;23;20503;-87
2021/04/14 11:12:53;;;;;;;7.53;5.03;;;13.70;64.60;;;;;;6186280;23;20028;-87
2021/04/14 11:15:23;;;;;;;6.60;4.93;;;13.70;65.70;;;;;;6185669;23;20025;-88
2021/04/14 11:18:04;;;;;;;5.85;4.85;;;13.70;66.40;;;;;;6186440;23;20023;-87
2021/04/14 11:20:38;;;;;;;6.25;4.80;;;13.70;66.20;;;;;;6186011;23;20039;-87
2021/04/14 11:23:25;;;;;;;6.47;5.18;;;13.80;66.10;;;;;;6185094;23;20012;-87
2021/04/14 11:26:17;;;;;;;5.78;4.65;;;13.90;65.60;;;;;;6175734;23;20021;-88
2021/04/14 11:28:55;;;;;;;6.60;4.55;;;13.80;64.60;;;;;;6189350;23;20024;-88
2021/04/14 11:31:39;;;;;;;8.50;5.20;;;13.70;64.30;;;;;;6189972;23;20100;-87
2021/04/14 11:34:18;;;;;;;10.98;5.70;;;13.80;64.20;;;;;;6190454;23;20013;-88
2021/04/14 11:36:58;;;;;;;6.55;4.95;;;13.80;64.70;;;;;;6191537;23;20020;-88
2021/04/14 11:39:27;;;;;;;6.47;5.40;;;13.80;64.10;;;;;;6190529;23;20028;-88
2021/04/14 11:42:22;;;;;;;8.82;5.20;;;13.90;64.70;;;;;;6193835;23;20091;-88
2021/04/14 11:44:59;;;;;;;7.30;5.50;;;13.90;67.00;;;;;;6205904;23;20031;-88
2021/04/14 11:47:33;;;;;;;6.60;5.75;;;14.00;65.70;;;;;;6199998;23;20071;-88
2021/04/14 11:50:16;;;;;;;8.45;4.93;;;14.00;65.60;;;;;;6191512;23;20025;-87
2021/04/14 11:52:54;;;;;;;6.78;5.05;;;14.10;65.00;;;;;;6189654;23;20104;-87
2021/04/14 11:55:21;;;;;;;;;;;14.10;65.40;;;;;;6190060;23;20474;-86
2021/04/14 11:57:54;;;;;;;9.18;5.53;;;14.10;64.30;;;;;;6189480;23;19954;-88
2021/04/14 12:00:43;;;;;;;7.53;5.43;;;14.10;65.30;;;;;;6189312;23;20023;-87
2021/04/14 12:03:30;;;;;;;9.68;5.40;;;14.20;65.20;;;;;;6188092;23;20024;-87
2021/04/14 12:05:58;;;;;;;7.63;4.82;;;14.20;64.90;;;;;;6189566;23;20012;-88
2021/04/14 12:08:27;;;;;;;6.22;4.38;;;14.20;64.60;;;;;;6215983;23;20084;-88
2021/04/14 12:10:54;;;;;;;5.65;5.05;;;14.20;64.90;;;;;;6190252;23;20100;-88
2021/04/14 12:13:21;;;;;;;7.38;4.78;;;14.20;65.00;;;;;;6190659;23;20028;-87
2021/04/14 12:15:49;;;;;;;;;;;14.30;64.60;;;;;;6193933;23;20027;-89
2021/04/14 12:18:17;;;;;;;5.35;4.68;;;14.30;63.40;;;;;;6215562;23;19916;-88
2021/04/14 12:20:43;;;;;;;4.97;4.43;;;14.30;63.70;;;;;;6189607;23;20026;-88
2021/04/14 12:23:10;;;;;;;12.52;5.43;;;14.30;63.70;;;;;;6188170;23;20086;-88
2021/04/14 12:25:37;;;;;;;6.47;4.40;;;14.30;63.00;;;;;;6189563;23;20031;-88
2021/04/14 12:28:04;;;;;;;5.95;4.68;;;14.30;63.30;;;;;;6189700;23;20016;-87
2021/04/14 12:30:30;;;;;;;5.97;4.88;;;14.30;63.70;;;;;;6190125;23;20459;-88
2021/04/14 12:32:57;;;;;;;8.52;5.13;;;14.30;63.10;;;;;;6190235;23;20040;-88
2021/04/14 12:35:25;;;;;;;4.97;4.47;;;14.30;63.10;;;;;;6189656;23;20031;-88
2021/04/14 12:37:53;;;;;;;6.85;5.05;;;14.30;62.50;;;;;;6190055;23;20502;-88
2021/04/14 12:40:19;;;;;;;5.47;4.88;;;14.40;63.10;;;;;;6189126;23;20444;-88
2021/04/14 12:42:54;;;;;;;5.22;4.70;;;14.50;63.40;;;;;;6191115;23;20425;-88
2021/04/14 12:45:36;;;;;;;6.68;4.80;;;14.50;63.40;;;;;;6188960;23;20332;-89
2021/04/14 12:48:09;;;;;;;9.85;5.43;;;14.50;63.40;;;;;;6190280;23;20044;-88
2021/04/14 12:51:07;;;;;;;4.90;4.25;;;14.60;63.80;;;;;;6192409;23;20067;-88
2021/04/14 12:53:46;;;;;;;5.22;4.53;;;14.70;63.00;;;;;;6189207;23;20024;-88
2021/04/14 12:56:22;;;;;;;5.55;4.72;;;14.70;61.40;;;;;;6189664;23;20441;-88
2021/04/14 12:58:50;;;;;;;5.63;4.82;;;14.60;61.30;;;;;;6190451;23;20021;-88
2021/04/14 13:01:18;;;;;;;5.45;4.90;;;14.60;61.50;;;;;;6173103;23;20020;-88
2021/04/14 13:03:48;;;;;;;6.57;4.90;;;14.70;62.80;;;;;;6192417;23;20044;-89
2021/04/14 13:06:32;;;;;;;5.57;4.75;;;14.60;62.10;;;;;;6189639;23;20027;-88
2021/04/14 13:09:05;;;;;;;6.07;4.78;;;14.60;60.90;;;;;;6189968;23;20024;-89
2021/04/14 13:11:40;;;;;;;12.95;5.15;;;14.60;62.40;;;;;;6188433;23;20028;-88
2021/04/14 13:14:07;;;;;;;5.22;4.72;;;14.70;60.90;;;;;;6174000;23;20054;-86
2021/04/14 13:16:43;;;;;;;7.45;5.18;;;14.70;61.10;;;;;;6188820;23;20030;-88
2021/04/14 13:19:10;;;;;;;6.63;5.00;;;14.80;61.70;;;;;;6177804;23;20466;-87
2021/04/14 13:22:12;;;;;;;6.70;5.18;;;14.80;61.50;;;;;;6193847;23;20497;-88
2021/04/14 13:24:59;;;;;;;9.88;5.07;;;14.90;61.20;;;;;;6188384;23;20090;-88
2021/04/14 13:27:56;;;;;;;8.95;4.90;;;14.90;61.20;;;;;;6215033;23;20021;-88